createdAt,value
2019-02-12T00:03:27.248Z,1.57
2019-02-12T00:08:30.746Z,1.50
2019-02-12T00:13:33.460Z,1.83
2019-02-12T00:18:36.964Z,1.80
2019-02-12T00:23:39.561Z,1.60
2019-02-12T00:28:42.867Z,2.10
2019-02-12T00:33:46.042Z,2.17
2019-02-12T00:38:49.206Z,1.40
2019-02-12T00:43:52.471Z,2.10
2019-02-12T00:48:55.360Z,2.40
2019-02-12T00:53:58.738Z,1.60
2019-02-12T00:59:01.939Z,2.43
2019-02-12T01:04:05.493Z,1.20
2019-02-12T01:09:09.076Z,1.50
2019-02-12T01:14:11.597Z,1.70
2019-02-12T01:19:15.161Z,3.17
2019-02-12T01:24:18.680Z,1.73
2019-02-12T01:29:22.264Z,2.03
2019-02-12T01:34:25.505Z,1.47
2019-02-12T01:39:29.034Z,1.83
2019-02-12T01:44:32.259Z,1.20
2019-02-12T01:49:35.577Z,1.50
2019-02-12T01:54:38.783Z,1.17
2019-02-12T01:59:41.685Z,1.80
2019-02-12T02:04:45.011Z,1.50
2019-02-12T02:09:48.204Z,1.60
2019-02-12T02:14:51.116Z,1.53
2019-02-12T02:19:55.445Z,2.63
2019-02-12T02:24:58.657Z,1.67
2019-02-12T02:30:01.256Z,2.03
2019-02-12T02:35:04.358Z,1.93
2019-02-12T02:40:08.165Z,2.27
2019-02-12T02:45:12.173Z,2.03
2019-02-12T02:50:15.373Z,2.20
2019-02-12T02:55:18.258Z,1.70
2019-02-12T03:00:21.711Z,2.50
2019-02-12T03:05:24.948Z,1.20
2019-02-12T03:10:27.940Z,1.93
2019-02-12T03:15:31.484Z,1.80
2019-02-12T03:20:34.901Z,1.50
2019-02-12T03:25:39.229Z,2.00
2019-02-12T03:30:43.164Z,1.63
2019-02-12T03:35:45.623Z,2.33
2019-02-12T03:40:48.785Z,1.67
2019-02-12T03:45:53.812Z,1.90
2019-02-12T03:50:57.010Z,1.90
2019-02-12T03:56:00.200Z,2.20
2019-02-12T04:01:03.446Z,2.00
2019-02-12T04:06:06.603Z,2.47
2019-02-12T04:11:09.500Z,3.17
2019-02-12T04:16:12.159Z,1.87
2019-02-12T04:21:15.358Z,2.20
2019-02-12T04:26:19.803Z,2.60
2019-02-12T04:31:23.307Z,3.33
2019-02-12T04:36:25.850Z,1.77
2019-02-12T04:41:29.055Z,2.60
2019-02-12T04:46:32.574Z,2.73
2019-02-12T04:51:35.765Z,2.87
2019-02-12T04:56:39.359Z,2.80
2019-02-12T05:01:42.502Z,3.07
2019-02-12T05:06:45.726Z,3.10
2019-02-12T05:11:59.885Z,2.67
2019-02-12T05:17:02.761Z,2.70
2019-02-12T05:22:05.982Z,2.07
2019-02-12T05:27:09.171Z,2.60
2019-02-12T05:32:12.284Z,3.10
2019-02-12T05:37:14.939Z,2.40
2019-02-12T05:42:17.489Z,3.43
2019-02-12T05:47:21.501Z,2.40
2019-02-12T05:52:24.401Z,2.93
2019-02-12T05:57:27.603Z,2.50
2019-02-12T06:02:31.143Z,2.27
2019-02-12T06:07:34.397Z,2.93
2019-02-12T06:12:37.995Z,2.20
2019-02-12T06:17:41.464Z,2.30
2019-02-12T06:22:44.621Z,2.90
2019-02-12T06:27:47.847Z,2.90
2019-02-12T06:32:51.101Z,2.43
2019-02-12T06:37:54.010Z,2.73
2019-02-12T06:42:57.482Z,2.80
2019-02-12T06:48:00.430Z,1.90
2019-02-12T06:53:12.037Z,1.80
2019-02-12T06:58:08.423Z,3.07
2019-02-12T07:03:19.722Z,2.10
2019-02-12T07:08:40.839Z,3.20
2019-02-12T07:13:54.799Z,3.67
2019-02-12T07:19:21.759Z,3.42
2019-02-12T07:25:05.548Z,2.93
2019-02-12T07:31:01.043Z,3.00
2019-02-12T07:36:33.324Z,2.10
2019-02-12T07:42:19.483Z,2.50
2019-02-12T07:48:00.841Z,2.60
2019-02-12T07:53:31.622Z,2.40
2019-02-12T07:59:08.838Z,3.57
2019-02-12T08:04:59.495Z,3.33
2019-02-12T08:10:49.128Z,2.30
2019-02-12T08:16:14.446Z,2.73
2019-02-12T08:21:54.178Z,2.90
2019-02-12T08:27:37.197Z,3.37
2019-02-12T08:33:12.845Z,2.30
2019-02-12T08:39:04.076Z,2.83
2019-02-12T08:44:31.249Z,2.80
2019-02-12T08:50:01.845Z,3.00
2019-02-12T08:55:33.282Z,2.90
2019-02-12T09:01:02.110Z,3.47
2019-02-12T09:06:37.094Z,2.60
2019-02-12T09:12:06.057Z,2.33
2019-02-12T09:17:59.094Z,1.63
2019-02-12T09:23:30.727Z,2.13
2019-02-12T09:29:00.258Z,2.17
2019-02-12T09:34:42.147Z,2.00
2019-02-12T09:40:19.093Z,1.60
2019-02-12T09:46:23.799Z,2.10
2019-02-12T09:52:23.334Z,1.90
2019-02-12T09:58:03.975Z,2.27
2019-02-12T10:03:56.802Z,1.93
2019-02-12T10:09:28.494Z,2.50
2019-02-12T10:14:59.073Z,3.00
2019-02-12T10:20:15.696Z,2.33
2019-02-12T10:25:57.213Z,2.53
2019-02-12T10:31:40.610Z,2.80
2019-02-12T10:36:43.219Z,2.50
2019-02-12T10:41:46.525Z,2.23
2019-02-12T10:46:49.873Z,1.80
2019-02-12T10:51:52.699Z,2.03
2019-02-12T10:56:55.881Z,2.27
2019-02-12T11:01:59.056Z,2.20
2019-02-12T11:07:02.852Z,1.80
2019-02-12T11:12:06.370Z,2.27
2019-02-12T11:17:09.400Z,3.10
2019-02-12T11:22:12.915Z,2.20
2019-02-12T11:27:16.197Z,1.87
2019-02-12T11:32:19.374Z,2.27
2019-02-12T11:37:22.540Z,2.40
2019-02-12T11:42:26.101Z,2.53
2019-02-12T11:47:29.592Z,2.20
2019-02-12T11:52:32.102Z,2.30
2019-02-12T11:57:35.589Z,2.90
2019-02-12T12:02:42.019Z,2.03
2019-02-12T12:07:43.955Z,2.57
2019-02-12T12:12:47.471Z,2.33
2019-02-12T12:17:50.686Z,3.03
2019-02-12T12:22:53.576Z,3.23
2019-02-12T12:27:56.656Z,2.20
2019-02-12T12:32:59.856Z,2.57
2019-02-12T12:38:02.838Z,2.17
2019-02-12T12:43:06.038Z,2.40
2019-02-12T12:48:09.280Z,2.53
2019-02-12T12:53:12.565Z,2.83
2019-02-12T12:58:15.771Z,2.77
2019-02-12T13:03:19.252Z,3.07
2019-02-12T13:08:22.155Z,2.57
2019-02-12T13:13:24.768Z,2.33
2019-02-12T13:18:28.030Z,1.80
2019-02-12T13:23:31.395Z,2.57
2019-02-12T13:28:34.902Z,2.23
2019-02-12T13:33:40.585Z,3.20
2019-02-12T13:38:43.589Z,2.33
2019-02-12T13:43:46.189Z,3.13
2019-02-12T13:48:49.572Z,1.77
2019-02-12T13:53:54.279Z,2.20
2019-02-12T13:58:57.248Z,1.47
2019-02-12T14:04:00.702Z,1.47
2019-02-12T14:09:04.607Z,1.60
2019-02-12T14:14:07.489Z,1.27
2019-02-12T14:19:10.672Z,2.00
2019-02-12T14:24:14.285Z,1.43
2019-02-12T14:29:17.818Z,1.80
2019-02-12T14:34:21.512Z,1.60
2019-02-12T14:39:23.937Z,1.70
2019-02-12T14:44:26.920Z,1.83
2019-02-12T14:49:29.795Z,1.67
2019-02-12T14:54:33.104Z,1.87
2019-02-12T14:59:36.583Z,1.63
2019-02-12T15:04:40.246Z,1.07
2019-02-12T15:09:43.618Z,1.70
2019-02-12T15:14:47.176Z,1.47
2019-02-12T15:19:50.141Z,1.53
2019-02-12T15:24:53.367Z,1.00
2019-02-12T15:29:55.990Z,1.50
2019-02-12T15:34:59.564Z,1.30
2019-02-12T15:40:03.122Z,1.83
2019-02-12T15:45:07.166Z,1.90
2019-02-12T15:50:10.732Z,2.17
2019-02-12T15:55:13.292Z,1.53
2019-02-12T16:00:18.536Z,2.40
2019-02-12T16:05:22.726Z,2.10
2019-02-12T16:10:26.021Z,3.00
2019-02-12T16:15:29.638Z,1.57
2019-02-12T16:20:33.129Z,2.10
2019-02-12T16:25:36.473Z,1.80
2019-02-12T16:30:39.990Z,2.00
2019-02-12T16:35:43.200Z,2.40
2019-02-12T16:40:47.725Z,2.57
2019-02-12T16:45:56.148Z,2.67
2019-02-12T16:50:59.705Z,2.60
2019-02-12T16:56:08.087Z,3.27
2019-02-12T17:01:07.873Z,2.40
2019-02-12T17:06:11.723Z,4.13
2019-02-12T17:11:15.315Z,4.10
2019-02-12T17:16:18.192Z,3.47
2019-02-12T17:21:21.825Z,2.87
2019-02-12T17:26:24.830Z,4.50
2019-02-12T17:31:27.799Z,3.90
2019-02-12T17:36:31.384Z,3.90
2019-02-12T17:41:35.013Z,4.73
2019-02-12T17:46:38.581Z,5.20
2019-02-12T17:51:42.599Z,5.87
2019-02-12T17:56:45.885Z,7.60
2019-02-12T18:01:50.069Z,9.37
2019-02-12T18:06:53.371Z,9.90
2019-02-12T18:11:56.978Z,11.40
2019-02-12T18:17:01.151Z,14.13
2019-02-12T18:22:04.163Z,15.10
2019-02-12T18:27:07.794Z,11.07
2019-02-12T18:32:11.422Z,11.30
2019-02-12T18:37:15.128Z,12.40
2019-02-12T18:42:18.800Z,12.13
2019-02-12T18:47:22.431Z,12.00
2019-02-12T18:52:25.830Z,11.60
2019-02-12T18:57:29.582Z,12.33
2019-02-12T19:02:33.416Z,13.30
2019-02-12T19:07:36.974Z,12.43
2019-02-12T19:12:40.567Z,12.03
2019-02-12T19:17:47.579Z,10.63
2019-02-12T19:22:53.860Z,11.70
2019-02-12T19:27:57.786Z,11.57
2019-02-12T19:33:03.073Z,11.00
2019-02-12T19:38:07.119Z,11.40
2019-02-12T19:43:11.433Z,11.30
2019-02-12T19:48:17.789Z,9.93
2019-02-12T19:53:21.396Z,11.30
2019-02-12T19:58:26.476Z,10.00
2019-02-12T20:03:32.486Z,11.83
2019-02-12T20:08:38.254Z,11.40
2019-02-12T20:13:45.410Z,12.43
2019-02-12T20:18:52.191Z,13.37
2019-02-12T20:23:59.337Z,12.93
2019-02-12T20:29:07.371Z,14.33
2019-02-12T20:34:11.382Z,15.00
2019-02-12T20:39:17.380Z,16.53
2019-02-12T20:44:24.887Z,16.70
2019-02-12T20:49:31.066Z,16.33
2019-02-12T20:54:36.828Z,19.63
2019-02-12T20:59:43.542Z,16.83
2019-02-12T21:04:51.030Z,15.57
2019-02-12T21:09:56.387Z,15.20
2019-02-12T21:15:02.106Z,17.13
2019-02-12T21:20:06.770Z,15.87
2019-02-12T21:25:12.445Z,14.70
2019-02-12T21:30:18.578Z,15.43
2019-02-12T21:35:24.239Z,15.03
2019-02-12T21:40:28.592Z,14.77
2019-02-12T21:45:32.069Z,13.00
2019-02-12T21:50:35.938Z,12.67
2019-02-12T21:55:38.938Z,12.00
2019-02-12T22:00:42.491Z,12.70
2019-02-12T22:05:45.518Z,12.53
2019-02-12T22:10:48.807Z,11.30
2019-02-12T22:15:51.754Z,13.60
2019-02-12T22:20:54.967Z,12.73
2019-02-12T22:25:58.347Z,12.70
2019-02-12T22:31:02.030Z,13.00
2019-02-12T22:36:05.323Z,13.53
2019-02-12T22:41:08.739Z,13.40
2019-02-12T22:46:12.394Z,15.43
2019-02-12T22:51:15.246Z,16.23
2019-02-12T22:56:18.175Z,15.80
2019-02-12T23:01:31.402Z,17.67
2019-02-12T23:06:34.314Z,15.60
2019-02-12T23:11:37.502Z,16.37
2019-02-12T23:16:40.916Z,17.87
2019-02-12T23:21:44.253Z,17.13
2019-02-12T23:26:47.604Z,16.53
2019-02-12T23:31:50.779Z,17.67
2019-02-12T23:36:54.182Z,18.40
2019-02-12T23:41:57.742Z,16.70
2019-02-12T23:47:00.604Z,15.77
2019-02-12T23:52:04.136Z,17.53
2019-02-12T23:57:07.428Z,19.47
